createdAt,value
2019-03-23T00:00:11.319Z,13.47
2019-03-23T00:02:39.940Z,15.13
2019-03-23T00:05:10.001Z,14.53
2019-03-23T00:07:38.486Z,14.87
2019-03-23T00:10:08.722Z,14.40
2019-03-23T00:12:37.120Z,15.27
2019-03-23T00:15:08.360Z,12.97
2019-03-23T00:17:36.991Z,14.00
2019-03-23T00:20:06.918Z,14.00
2019-03-23T00:22:36.445Z,15.73
2019-03-23T00:25:05.970Z,14.00
2019-03-23T00:27:34.373Z,15.60
2019-03-23T00:30:03.204Z,15.07
2019-03-23T00:32:31.926Z,15.53
2019-03-23T00:35:00.819Z,15.43
2019-03-23T00:37:29.458Z,15.67
2019-03-23T00:39:57.891Z,15.97
2019-03-23T00:42:26.558Z,16.07
2019-03-23T00:44:55.247Z,14.70
2019-03-23T00:47:23.645Z,15.70
2019-03-23T00:49:52.037Z,16.10
2019-03-23T00:52:20.440Z,15.37
2019-03-23T00:54:48.826Z,18.47
2019-03-23T00:57:17.209Z,18.30
2019-03-23T00:59:45.623Z,18.43
2019-03-23T01:02:14.403Z,17.40
2019-03-23T01:04:42.792Z,17.67
2019-03-23T01:07:11.472Z,18.60
2019-03-23T01:09:39.873Z,18.20
2019-03-23T01:12:08.273Z,18.30
2019-03-23T01:14:36.674Z,19.20
2019-03-23T01:17:05.599Z,19.10
2019-03-23T01:19:34.292Z,19.17
2019-03-23T01:22:02.673Z,19.50
2019-03-23T01:24:31.074Z,20.43
2019-03-23T01:26:59.660Z,19.67
2019-03-23T01:29:28.046Z,19.60
2019-03-23T01:31:56.465Z,20.43
2019-03-23T01:34:24.867Z,21.90
2019-03-23T01:37:02.476Z,22.20
2019-03-23T01:39:24.192Z,22.50
2019-03-23T01:41:52.875Z,23.30
2019-03-23T01:44:21.263Z,23.87
2019-03-23T01:46:49.650Z,22.70
2019-03-23T01:49:18.415Z,24.17
2019-03-23T01:51:47.040Z,22.80
2019-03-23T01:54:15.437Z,22.30
2019-03-23T01:56:43.849Z,22.47
2019-03-23T01:59:12.367Z,22.07
2019-03-23T02:01:40.777Z,24.10
2019-03-23T02:04:09.409Z,23.00
2019-03-23T02:06:37.867Z,21.90
2019-03-23T02:09:07.589Z,24.93
2019-03-23T02:11:36.371Z,23.90
2019-03-23T02:14:04.997Z,25.93
2019-03-23T02:16:33.500Z,25.07
2019-03-23T02:19:02.350Z,25.93
2019-03-23T02:21:30.731Z,27.30
2019-03-23T02:23:59.238Z,26.67
2019-03-23T02:26:27.710Z,29.20
2019-03-23T02:28:56.131Z,30.90
2019-03-23T02:31:24.567Z,32.00
2019-03-23T02:33:53.252Z,33.73
2019-03-23T02:36:21.930Z,35.83
2019-03-23T02:38:50.614Z,34.23
2019-03-23T02:41:19.005Z,34.10
2019-03-23T02:43:47.408Z,34.73
2019-03-23T02:46:16.055Z,35.33
2019-03-23T02:48:44.663Z,36.53
2019-03-23T02:51:13.060Z,36.93
2019-03-23T02:53:41.729Z,36.73
2019-03-23T02:56:10.403Z,41.57
2019-03-23T02:58:38.858Z,40.17
2019-03-23T03:01:07.557Z,41.60
2019-03-23T03:03:35.964Z,43.33
2019-03-23T03:06:04.428Z,40.77
2019-03-23T03:08:32.903Z,42.33
2019-03-23T03:11:01.381Z,42.87
2019-03-23T03:13:29.764Z,42.70
2019-03-23T03:15:58.273Z,43.87
2019-03-23T03:18:26.740Z,47.37
2019-03-23T03:20:55.518Z,48.13
2019-03-23T03:23:23.990Z,45.87
2019-03-23T03:25:52.381Z,49.37
2019-03-23T03:28:21.060Z,52.00
2019-03-23T03:30:49.756Z,50.00
2019-03-23T03:33:18.434Z,63.17
2019-03-23T03:35:46.853Z,66.07
2019-03-23T03:38:15.248Z,70.60
2019-03-23T03:40:43.706Z,72.90
2019-03-23T03:43:12.210Z,71.10
2019-03-23T03:45:40.664Z,75.33
2019-03-23T03:48:09.143Z,78.03
2019-03-23T03:50:37.805Z,76.17
2019-03-23T03:53:06.306Z,74.23
2019-03-23T03:55:34.901Z,77.17
2019-03-23T03:58:03.664Z,75.23
2019-03-23T04:00:32.060Z,76.07
2019-03-23T04:03:00.726Z,80.03
2019-03-23T04:05:29.407Z,83.63
2019-03-23T04:08:10.520Z,83.80
2019-03-23T04:10:27.938Z,83.33
2019-03-23T04:12:56.590Z,80.33
2019-03-23T04:15:24.992Z,78.47
2019-03-23T04:17:53.476Z,80.00
2019-03-23T04:20:22.152Z,79.70
2019-03-23T04:22:50.928Z,78.67
2019-03-23T04:25:19.430Z,78.83
2019-03-23T04:27:48.033Z,80.33
2019-03-23T04:30:16.511Z,80.80
2019-03-23T04:32:44.930Z,76.50
2019-03-23T04:35:13.568Z,84.40
2019-03-23T04:37:42.391Z,77.00
2019-03-23T04:40:12.222Z,76.87
2019-03-23T04:42:41.158Z,79.60
2019-03-23T04:45:11.674Z,79.00
2019-03-23T04:47:40.353Z,76.20
2019-03-23T04:50:10.643Z,80.20
2019-03-23T04:52:39.147Z,79.30
2019-03-23T04:55:10.625Z,73.90
2019-03-23T04:57:39.951Z,71.00
2019-03-23T05:00:17.017Z,73.93
2019-03-23T05:02:45.678Z,73.10
2019-03-23T05:05:14.146Z,75.90
2019-03-23T05:07:42.541Z,74.57
2019-03-23T05:10:12.056Z,71.73
2019-03-23T05:12:40.731Z,68.47
2019-03-23T05:15:09.781Z,75.47
2019-03-23T05:17:38.239Z,70.50
2019-03-23T05:20:11.160Z,74.33
2019-03-23T05:22:39.572Z,68.63
2019-03-23T05:25:11.333Z,71.20
2019-03-23T05:27:39.729Z,72.10
2019-03-23T05:30:08.690Z,73.03
2019-03-23T05:32:37.211Z,71.77
2019-03-23T05:35:07.057Z,71.57
2019-03-23T05:37:35.501Z,77.33
2019-03-23T05:40:05.969Z,75.17
2019-03-23T05:42:34.906Z,69.83
2019-03-23T05:45:03.575Z,73.33
2019-03-23T05:47:31.966Z,71.10
2019-03-23T05:50:00.423Z,72.20
2019-03-23T05:52:28.774Z,66.10
2019-03-23T05:54:57.465Z,65.97
2019-03-23T05:57:25.880Z,70.30
2019-03-23T05:59:54.392Z,68.50
2019-03-23T06:02:22.878Z,71.20
2019-03-23T06:04:51.362Z,69.87
2019-03-23T06:07:20.120Z,68.63
2019-03-23T06:09:48.812Z,77.50
2019-03-23T06:12:17.792Z,70.37
2019-03-23T06:14:46.696Z,66.10
2019-03-23T06:17:15.164Z,64.67
2019-03-23T06:19:43.684Z,73.53
2019-03-23T06:22:12.084Z,72.30
2019-03-23T06:24:40.636Z,72.60
2019-03-23T06:27:09.352Z,69.87
2019-03-23T06:29:37.792Z,71.43
2019-03-23T06:32:06.277Z,66.07
2019-03-23T06:34:34.686Z,73.80
2019-03-23T06:37:03.339Z,69.93
2019-03-23T06:39:31.738Z,67.23
2019-03-23T06:42:00.401Z,65.07
2019-03-23T06:44:28.867Z,70.30
2019-03-23T06:46:57.378Z,65.07
2019-03-23T06:49:25.824Z,65.53
2019-03-23T06:51:54.334Z,72.43
2019-03-23T06:54:22.726Z,70.00
2019-03-23T06:56:51.194Z,74.20
2019-03-23T06:59:19.598Z,70.77
2019-03-23T07:01:47.996Z,68.60
2019-03-23T07:04:16.397Z,71.30
2019-03-23T07:06:44.859Z,66.10
2019-03-23T07:09:16.311Z,70.30
2019-03-23T07:11:43.709Z,69.20
2019-03-23T07:14:12.260Z,71.93
2019-03-23T07:16:40.665Z,73.33
2019-03-23T07:19:09.050Z,71.80
2019-03-23T07:21:37.453Z,67.80
2019-03-23T07:24:05.927Z,70.30
2019-03-23T07:26:34.317Z,72.43
2019-03-23T07:29:02.717Z,71.90
2019-03-23T07:31:31.123Z,71.73
2019-03-23T07:33:59.835Z,71.63
2019-03-23T07:36:28.307Z,73.10
2019-03-23T07:38:56.814Z,71.37
2019-03-23T07:41:25.702Z,68.70
2019-03-23T07:43:54.158Z,68.13
2019-03-23T07:46:22.549Z,70.77
2019-03-23T07:48:51.167Z,67.10
2019-03-23T07:51:19.565Z,70.23
2019-03-23T07:53:47.960Z,67.40
2019-03-23T07:56:16.407Z,67.33
2019-03-23T07:58:44.795Z,69.27
2019-03-23T08:01:13.252Z,72.93
2019-03-23T08:03:41.722Z,64.97
2019-03-23T08:06:10.124Z,67.83
2019-03-23T08:08:38.549Z,63.90
2019-03-23T08:11:06.964Z,65.73
2019-03-23T08:13:35.379Z,66.13
2019-03-23T08:16:03.773Z,66.77
2019-03-23T08:18:32.171Z,64.03
2019-03-23T08:21:00.612Z,65.43
2019-03-23T08:23:29.146Z,65.07
2019-03-23T08:26:00.230Z,62.17
2019-03-23T08:28:28.673Z,64.37
2019-03-23T08:30:57.362Z,62.47
2019-03-23T08:33:25.802Z,63.10
2019-03-23T08:35:54.214Z,61.87
2019-03-23T08:38:22.935Z,62.13
2019-03-23T08:40:51.329Z,59.13
2019-03-23T08:43:19.929Z,62.00
2019-03-23T08:45:48.360Z,61.00
2019-03-23T08:48:16.747Z,59.33
2019-03-23T08:50:45.341Z,57.40
2019-03-23T08:53:13.743Z,57.87
2019-03-23T08:55:42.254Z,60.10
2019-03-23T08:58:10.995Z,59.90
2019-03-23T09:00:39.424Z,59.43
2019-03-23T09:03:07.814Z,57.10
2019-03-23T09:05:36.443Z,57.20
2019-03-23T09:08:04.839Z,58.07
2019-03-23T09:10:33.390Z,58.50
2019-03-23T09:13:01.798Z,58.30
2019-03-23T09:15:30.353Z,55.97
2019-03-23T09:17:59.023Z,55.43
2019-03-23T09:20:29.422Z,60.13
2019-03-23T09:22:57.643Z,56.00
2019-03-23T09:25:26.313Z,56.67
2019-03-23T09:27:54.913Z,56.37
2019-03-23T09:30:23.320Z,56.60
2019-03-23T09:32:51.790Z,52.70
2019-03-23T09:35:20.221Z,58.90
2019-03-23T09:37:48.736Z,57.30
2019-03-23T09:40:17.137Z,56.73
2019-03-23T09:42:45.885Z,58.23
2019-03-23T09:45:15.437Z,57.10
2019-03-23T09:47:43.847Z,54.10
2019-03-23T09:50:12.676Z,52.80
2019-03-23T09:52:41.523Z,56.00
2019-03-23T09:55:10.317Z,54.87
2019-03-23T09:57:38.702Z,56.20
2019-03-23T10:00:12.263Z,55.63
2019-03-23T10:02:40.661Z,52.23
2019-03-23T10:05:09.123Z,52.07
2019-03-23T10:07:37.511Z,54.73
2019-03-23T10:10:06.936Z,55.27
2019-03-23T10:12:35.334Z,53.30
2019-03-23T10:15:06.334Z,51.90
2019-03-23T10:17:34.729Z,49.93
2019-03-23T10:20:04.861Z,54.43
2019-03-23T10:22:33.254Z,51.87
2019-03-23T10:25:01.655Z,52.30
2019-03-23T10:27:30.053Z,52.53
2019-03-23T10:29:58.819Z,52.67
2019-03-23T10:32:27.234Z,53.83
2019-03-23T10:34:55.624Z,55.83
2019-03-23T10:37:26.045Z,53.00
2019-03-23T10:39:54.143Z,52.10
2019-03-23T10:42:23.567Z,53.43
2019-03-23T10:44:51.961Z,52.70
2019-03-23T10:47:20.390Z,55.87
2019-03-23T10:49:48.764Z,51.60
2019-03-23T10:52:17.390Z,55.70
2019-03-23T10:54:45.798Z,54.43
2019-03-23T10:57:14.182Z,56.97
2019-03-23T10:59:42.569Z,57.77
2019-03-23T11:02:11.046Z,56.97
2019-03-23T11:04:39.478Z,57.50
2019-03-23T11:07:07.949Z,55.23
2019-03-23T11:09:36.348Z,55.63
2019-03-23T11:12:04.792Z,55.30
2019-03-23T11:14:33.253Z,53.70
2019-03-23T11:17:01.656Z,53.43
2019-03-23T11:19:30.813Z,54.50
2019-03-23T11:21:59.201Z,57.43
2019-03-23T11:24:27.784Z,55.40
2019-03-23T11:26:56.187Z,57.00
2019-03-23T11:29:24.582Z,54.70
2019-03-23T11:31:53.309Z,55.00
2019-03-23T11:34:21.683Z,56.47
2019-03-23T11:36:50.088Z,57.27
2019-03-23T11:39:18.471Z,59.83
2019-03-23T11:41:46.867Z,56.20
2019-03-23T11:44:15.315Z,52.73
2019-03-23T11:46:43.718Z,53.90
2019-03-23T11:49:12.264Z,53.00
2019-03-23T11:51:40.645Z,54.23
2019-03-23T11:54:09.031Z,53.80
2019-03-23T11:56:37.427Z,55.17
2019-03-23T11:59:06.085Z,57.77
2019-03-23T12:01:34.774Z,56.33
2019-03-23T12:04:03.155Z,57.70
2019-03-23T12:06:31.845Z,54.47
2019-03-23T12:09:00.229Z,52.73
2019-03-23T12:11:28.629Z,56.17
2019-03-23T12:13:57.274Z,55.00
2019-03-23T12:16:25.694Z,53.63
2019-03-23T12:18:54.087Z,51.60
2019-03-23T12:21:22.497Z,54.53
2019-03-23T12:23:50.904Z,53.17
2019-03-23T12:26:19.287Z,51.77
2019-03-23T12:28:47.746Z,54.00
2019-03-23T12:31:16.137Z,52.10
2019-03-23T12:33:44.597Z,51.57
2019-03-23T12:36:13.016Z,53.03
2019-03-23T12:38:41.419Z,51.00
2019-03-23T12:41:18.492Z,47.57
2019-03-23T12:43:40.100Z,49.30
2019-03-23T12:46:08.683Z,50.83
2019-03-23T12:48:37.150Z,49.23
2019-03-23T12:51:05.711Z,47.87
2019-03-23T12:53:34.109Z,49.70
2019-03-23T12:56:02.568Z,52.43
2019-03-23T12:58:30.981Z,48.30
2019-03-23T13:00:59.446Z,48.53
2019-03-23T13:03:27.825Z,48.03
2019-03-23T13:05:56.223Z,51.57
2019-03-23T13:08:24.613Z,49.10
2019-03-23T13:10:53.035Z,48.37
2019-03-23T13:13:21.504Z,48.27
2019-03-23T13:15:50.074Z,48.00
2019-03-23T13:18:26.850Z,48.20
2019-03-23T13:20:48.630Z,48.77
2019-03-23T13:23:17.122Z,48.20
2019-03-23T13:25:45.603Z,49.13
2019-03-23T13:28:14.023Z,51.50
2019-03-23T13:30:42.417Z,46.73
2019-03-23T13:33:10.801Z,49.50
2019-03-23T13:35:39.624Z,50.50
2019-03-23T13:38:08.026Z,52.33
2019-03-23T13:40:36.414Z,48.20
2019-03-23T13:43:05.715Z,50.30
2019-03-23T13:45:42.385Z,48.57
2019-03-23T13:48:04.527Z,51.30
2019-03-23T13:50:32.899Z,50.73
2019-03-23T13:53:01.286Z,49.00
2019-03-23T13:55:32.963Z,51.33
2019-03-23T13:58:14.643Z,52.33
2019-03-23T14:00:43.028Z,51.60
2019-03-23T14:03:11.707Z,51.40
2019-03-23T14:05:40.090Z,50.03
2019-03-23T14:08:08.493Z,50.20
2019-03-23T14:10:37.236Z,48.73
2019-03-23T14:13:05.697Z,49.27
2019-03-23T14:15:34.083Z,50.70
2019-03-23T14:18:02.484Z,47.10
2019-03-23T14:20:30.915Z,49.10
2019-03-23T14:23:02.985Z,50.50
2019-03-23T14:25:29.436Z,47.23
2019-03-23T14:27:58.031Z,50.03
2019-03-23T14:30:26.500Z,44.97
2019-03-23T14:32:54.891Z,45.60
2019-03-23T14:35:23.281Z,47.53
2019-03-23T14:37:51.700Z,49.23
2019-03-23T14:40:20.130Z,46.57
2019-03-23T14:42:48.599Z,47.07
2019-03-23T14:45:17.091Z,47.97
2019-03-23T14:47:45.589Z,47.67
2019-03-23T14:50:14.248Z,45.73
2019-03-23T14:52:42.650Z,47.20
2019-03-23T14:55:11.410Z,45.30
2019-03-23T14:57:40.580Z,47.43
2019-03-23T15:00:10.682Z,47.40
2019-03-23T15:02:39.079Z,47.90
2019-03-23T15:05:08.413Z,48.90
2019-03-23T15:07:36.995Z,46.57
2019-03-23T15:10:08.794Z,48.70
2019-03-23T15:12:37.255Z,49.20
2019-03-23T15:15:09.513Z,47.30
2019-03-23T15:17:37.909Z,47.63
2019-03-23T15:20:06.840Z,48.93
2019-03-23T15:22:35.268Z,47.67
2019-03-23T15:25:05.094Z,49.17
2019-03-23T15:27:33.851Z,50.43
2019-03-23T15:30:02.411Z,48.13
2019-03-23T15:32:30.810Z,48.13
2019-03-23T15:34:59.198Z,48.10
2019-03-23T15:37:27.598Z,49.37
2019-03-23T15:39:56.003Z,48.70
2019-03-23T15:42:25.223Z,51.20
2019-03-23T15:44:53.713Z,48.80
2019-03-23T15:47:22.371Z,49.47
2019-03-23T15:49:50.762Z,46.47
2019-03-23T15:52:19.209Z,48.63
2019-03-23T15:54:47.632Z,46.53
2019-03-23T15:57:16.087Z,49.27
2019-03-23T15:59:44.490Z,47.70
2019-03-23T16:02:12.998Z,49.00
2019-03-23T16:04:41.477Z,49.23
2019-03-23T16:07:09.862Z,46.77
2019-03-23T16:09:38.263Z,45.60
2019-03-23T16:12:06.684Z,50.37
2019-03-23T16:14:35.074Z,46.00
2019-03-23T16:17:03.520Z,45.60
2019-03-23T16:19:31.998Z,48.20
2019-03-23T16:22:00.380Z,47.60
2019-03-23T16:24:28.775Z,47.43
2019-03-23T16:26:57.314Z,48.60
2019-03-23T16:29:25.769Z,47.20
2019-03-23T16:31:54.303Z,49.53
2019-03-23T16:34:22.690Z,48.40
2019-03-23T16:36:51.100Z,49.00
2019-03-23T16:39:19.495Z,49.80
2019-03-23T16:41:47.986Z,46.17
2019-03-23T16:44:16.378Z,49.00
2019-03-23T16:46:44.770Z,48.77
2019-03-23T16:49:13.170Z,48.03
2019-03-23T16:51:41.743Z,49.50
2019-03-23T16:54:10.126Z,48.60
2019-03-23T16:56:38.514Z,46.70
2019-03-23T16:59:06.932Z,48.67
2019-03-23T17:01:35.301Z,48.83
2019-03-23T17:04:03.737Z,47.20
2019-03-23T17:06:32.510Z,49.00
2019-03-23T17:09:00.926Z,46.60
2019-03-23T17:11:29.312Z,48.30
2019-03-23T17:13:57.761Z,46.80
2019-03-23T17:16:26.475Z,47.27
2019-03-23T17:18:55.018Z,52.33
2019-03-23T17:21:23.439Z,50.33
2019-03-23T17:23:51.842Z,52.33
2019-03-23T17:26:20.296Z,51.50
2019-03-23T17:28:49.024Z,51.00
2019-03-23T17:31:17.994Z,55.60
2019-03-23T17:33:46.514Z,52.87
2019-03-23T17:36:15.216Z,53.77
2019-03-23T17:38:43.753Z,50.67
2019-03-23T17:41:12.207Z,53.57
2019-03-23T17:43:40.982Z,50.83
2019-03-23T17:46:09.741Z,51.17
2019-03-23T17:48:38.629Z,50.80
2019-03-23T17:51:07.251Z,50.50
2019-03-23T17:53:35.676Z,50.63
2019-03-23T17:56:06.335Z,52.07
2019-03-23T17:58:34.479Z,49.50
2019-03-23T18:01:03.580Z,49.30
2019-03-23T18:03:32.075Z,50.00
2019-03-23T18:06:00.941Z,51.37
2019-03-23T18:08:29.645Z,53.07
2019-03-23T18:10:58.426Z,49.40
2019-03-23T18:13:27.228Z,49.93
2019-03-23T18:15:55.685Z,49.47
2019-03-23T18:18:24.135Z,50.07
2019-03-23T18:20:52.615Z,51.40
2019-03-23T18:23:21.719Z,48.90
2019-03-23T18:25:51.841Z,46.40
2019-03-23T18:28:21.028Z,46.50
2019-03-23T18:30:49.489Z,48.50
2019-03-23T18:33:17.931Z,47.60
2019-03-23T18:35:46.328Z,48.30
2019-03-23T18:38:14.719Z,49.43
2019-03-23T18:40:43.401Z,49.20
2019-03-23T18:43:11.862Z,49.83
2019-03-23T18:45:40.288Z,49.03
2019-03-23T18:48:08.762Z,48.50
2019-03-23T18:50:37.138Z,48.40
2019-03-23T18:53:05.725Z,47.50
2019-03-23T18:55:34.170Z,47.50
2019-03-23T18:58:02.578Z,45.87
2019-03-23T19:00:39.227Z,48.80
2019-03-23T19:03:08.365Z,48.50
2019-03-23T19:05:37.240Z,50.20
2019-03-23T19:08:06.160Z,49.30
2019-03-23T19:10:34.726Z,48.77
2019-03-23T19:13:03.193Z,49.00
2019-03-23T19:15:31.596Z,49.17
2019-03-23T19:17:59.986Z,49.10
2019-03-23T19:20:28.370Z,52.07
2019-03-23T19:22:56.772Z,47.57
2019-03-23T19:25:25.168Z,50.73
2019-03-23T19:27:53.574Z,50.77
2019-03-23T19:30:22.313Z,51.97
2019-03-23T19:32:50.723Z,52.70
2019-03-23T19:35:19.117Z,50.00
2019-03-23T19:37:47.506Z,50.07
2019-03-23T19:40:16.347Z,50.10
2019-03-23T19:42:44.801Z,49.90
2019-03-23T19:45:13.844Z,49.73
2019-03-23T19:47:42.243Z,49.63
2019-03-23T19:50:11.254Z,50.77
2019-03-23T19:52:39.712Z,48.90
2019-03-23T19:55:08.942Z,50.33
2019-03-23T19:57:37.331Z,52.50
2019-03-23T20:00:08.122Z,49.50
2019-03-23T20:02:36.920Z,50.80
2019-03-23T20:05:09.003Z,51.17
2019-03-23T20:07:37.400Z,50.50
2019-03-23T20:10:08.647Z,48.67
2019-03-23T20:12:37.174Z,48.30
2019-03-23T20:15:09.032Z,50.23
2019-03-23T20:17:38.034Z,51.07
2019-03-23T20:20:10.569Z,49.27
2019-03-23T20:22:39.168Z,49.47
2019-03-23T20:25:08.417Z,52.50
2019-03-23T20:27:36.797Z,51.97
2019-03-23T20:30:08.536Z,51.40
2019-03-23T20:32:36.998Z,52.37
2019-03-23T20:35:07.228Z,52.37
2019-03-23T20:37:36.759Z,55.50
2019-03-23T20:40:09.310Z,51.17
2019-03-23T20:42:38.320Z,55.00
2019-03-23T20:45:10.337Z,53.03
2019-03-23T20:47:40.656Z,51.77
2019-03-23T20:50:10.572Z,53.20
2019-03-23T20:52:40.448Z,50.93
2019-03-23T20:55:14.650Z,51.37
2019-03-23T20:57:43.041Z,53.40
2019-03-23T21:00:11.866Z,52.37
2019-03-23T21:02:40.421Z,55.83
2019-03-23T21:05:08.816Z,53.33
2019-03-23T21:07:37.241Z,52.73
2019-03-23T21:10:06.702Z,54.47
2019-03-23T21:12:35.345Z,52.23
2019-03-23T21:15:04.855Z,55.13
2019-03-23T21:17:33.359Z,49.43
2019-03-23T21:20:01.765Z,53.40
2019-03-23T21:22:30.557Z,53.67
2019-03-23T21:24:59.185Z,55.47
2019-03-23T21:27:27.695Z,52.40
2019-03-23T21:29:56.086Z,53.80
2019-03-23T21:32:24.649Z,52.77
2019-03-23T21:34:53.038Z,51.10
2019-03-23T21:37:21.606Z,51.10
2019-03-23T21:39:49.997Z,52.63
2019-03-23T21:42:18.380Z,55.00
2019-03-23T21:44:46.777Z,55.10
2019-03-23T21:47:15.539Z,53.23
2019-03-23T21:49:43.927Z,54.80
2019-03-23T21:52:12.320Z,54.50
2019-03-23T21:54:40.736Z,56.97
2019-03-23T21:57:09.273Z,57.90
2019-03-23T21:59:38.234Z,57.23
2019-03-23T22:02:06.921Z,54.90
2019-03-23T22:04:35.604Z,55.10
2019-03-23T22:07:04.025Z,57.30
2019-03-23T22:09:32.438Z,56.93
2019-03-23T22:12:01.030Z,57.27
2019-03-23T22:14:29.837Z,57.70
2019-03-23T22:16:58.526Z,58.17
2019-03-23T22:19:26.906Z,57.90
2019-03-23T22:21:55.324Z,57.43
2019-03-23T22:24:23.708Z,56.47
2019-03-23T22:26:52.165Z,57.23
2019-03-23T22:29:20.570Z,58.20
2019-03-23T22:31:49.021Z,57.53
2019-03-23T22:34:17.507Z,56.20
2019-03-23T22:36:46.169Z,55.77
2019-03-23T22:39:14.554Z,53.17
2019-03-23T22:41:42.950Z,53.70
2019-03-23T22:44:11.711Z,52.03
2019-03-23T22:46:40.399Z,50.30
2019-03-23T22:49:09.038Z,49.57
2019-03-23T22:51:37.444Z,49.80
2019-03-23T22:54:05.984Z,50.90
2019-03-23T22:56:34.370Z,47.50
2019-03-23T22:59:03.112Z,45.63
2019-03-23T23:01:37.818Z,47.53
2019-03-23T23:04:06.311Z,45.30
2019-03-23T23:06:34.700Z,47.30
2019-03-23T23:09:04.514Z,43.33
2019-03-23T23:11:33.447Z,43.63
2019-03-23T23:14:01.847Z,44.60
2019-03-23T23:16:30.348Z,43.27
2019-03-23T23:18:59.056Z,46.07
2019-03-23T23:21:27.532Z,43.80
2019-03-23T23:23:56.028Z,43.97
2019-03-23T23:26:24.713Z,42.50
2019-03-23T23:28:53.110Z,42.23
2019-03-23T23:31:21.498Z,44.50
2019-03-23T23:33:49.926Z,42.80
2019-03-23T23:36:18.407Z,41.07
2019-03-23T23:38:47.115Z,44.13
2019-03-23T23:41:15.514Z,41.07
2019-03-23T23:43:43.912Z,42.53
2019-03-23T23:46:12.302Z,41.10
2019-03-23T23:48:50.830Z,42.60
2019-03-23T23:51:11.875Z,41.63
2019-03-23T23:53:40.263Z,41.10
2019-03-23T23:56:09.039Z,41.10
2019-03-23T23:58:37.439Z,41.83
